Time;durP1;ratioP1;P1;durP2;ratioP2;P2;SDS_P1;SDS_P2;PMS_P1;PMS_P2;Temp;Humidity;BMP_temperature;BMP_pressure;BME280_temperature;BME280_humidity;BME280_pressure;Samples;Min_cycle;Max_cycle;Signal;HPM_P1;HPM_P2
2022/03/20 00:00:31;;;;;;;3.65;1.40;;;20.10;44.30;;;;;;4861151;29;20057;-61
2022/03/20 00:02:57;;;;;;;4.07;1.60;;;20.00;44.20;;;;;;4861957;29;20125;-61
2022/03/20 00:05:23;;;;;;;5.18;1.60;;;20.00;44.20;;;;;;4861158;29;20057;-62
2022/03/20 00:07:48;;;;;;;5.07;1.70;;;20.00;44.20;;;;;;4861129;29;20054;-61
2022/03/20 00:10:14;;;;;;;2.92;1.17;;;20.00;44.20;;;;;;4861386;29;20109;-62
2022/03/20 00:12:40;;;;;;;4.03;1.40;;;20.00;44.20;;;;;;4859843;29;20045;-61
2022/03/20 00:15:05;;;;;;;3.17;1.20;;;20.00;44.30;;;;;;4860046;29;20057;-61
2022/03/20 00:17:31;;;;;;;3.35;1.45;;;20.00;44.20;;;;;;4859549;29;20053;-61
2022/03/20 00:19:56;;;;;;;4.15;1.60;;;20.00;44.30;;;;;;4859325;29;20045;-61
2022/03/20 00:22:22;;;;;;;3.00;1.40;;;20.00;44.20;;;;;;4861130;29;20050;-61
2022/03/20 00:24:48;;;;;;;3.00;1.35;;;19.90;44.20;;;;;;4860293;29;20051;-62
2022/03/20 00:27:14;;;;;;;3.72;1.50;;;19.90;44.20;;;;;;4859057;29;20136;-62
2022/03/20 00:29:40;;;;;;;3.15;1.33;;;19.90;44.20;;;;;;4861430;29;20045;-60
2022/03/20 00:32:06;;;;;;;3.10;1.33;;;19.90;44.20;;;;;;4861204;29;20493;-61
2022/03/20 00:34:32;;;;;;;3.25;1.27;;;19.90;44.10;;;;;;4859016;29;20390;-62
2022/03/20 00:36:57;;;;;;;4.13;1.63;;;19.90;44.10;;;;;;4861116;29;20534;-61
2022/03/20 00:39:23;;;;;;;2.70;1.30;;;19.90;44.20;;;;;;4859548;29;20132;-62
2022/03/20 00:41:48;;;;;;;3.67;1.58;;;19.90;44.20;;;;;;4860113;29;20056;-62
2022/03/20 00:44:14;;;;;;;2.92;1.35;;;19.90;44.20;;;;;;4860861;29;20061;-63
2022/03/20 00:46:39;;;;;;;3.00;1.42;;;19.90;44.20;;;;;;4861043;29;20046;-62
2022/03/20 00:49:07;;;;;;;3.20;1.25;;;19.90;44.20;;;;;;4858979;29;20053;-61
2022/03/20 00:51:33;;;;;;;2.47;1.20;;;19.80;44.10;;;;;;4859285;29;20057;-62
2022/03/20 00:53:59;;;;;;;4.50;1.75;;;19.80;44.10;;;;;;4860510;29;20065;-62
2022/03/20 00:56:25;;;;;;;3.65;1.30;;;19.90;44.20;;;;;;4859792;29;20398;-62
2022/03/20 00:58:51;;;;;;;4.25;1.55;;;19.80;44.10;;;;;;4860633;29;20546;-62
2022/03/20 01:01:16;;;;;;;2.60;1.20;;;19.80;44.10;;;;;;4860333;29;20137;-62
2022/03/20 01:03:42;;;;;;;2.72;1.27;;;19.80;44.10;;;;;;4860113;29;20049;-61
2022/03/20 01:06:08;;;;;;;3.83;1.30;;;19.80;44.10;;;;;;4860579;29;20053;-62
2022/03/20 01:08:34;;;;;;;2.65;1.20;;;19.80;44.10;;;;;;4860386;29;20045;-63
2022/03/20 01:11:01;;;;;;;3.58;1.40;;;19.80;44.10;;;;;;4858823;29;20056;-62
2022/03/20 01:13:27;;;;;;;3.95;1.13;;;19.70;44.00;;;;;;4860550;29;20045;-62
2022/03/20 01:15:53;;;;;;;3.53;1.27;;;19.80;44.10;;;;;;4859073;29;20091;-61
2022/03/20 01:18:19;;;;;;;3.08;1.30;;;19.70;44.00;;;;;;4858163;29;20098;-61
2022/03/20 01:20:45;;;;;;;3.10;1.30;;;19.80;44.00;;;;;;4860372;29;20169;-61
2022/03/20 01:23:10;;;;;;;3.55;1.50;;;19.70;44.00;;;;;;4859716;29;20508;-61
2022/03/20 01:25:36;;;;;;;3.72;1.80;;;19.70;44.00;;;;;;4860216;29;20489;-61
2022/03/20 01:28:02;;;;;;;3.65;1.60;;;19.70;43.90;;;;;;4860315;29;20610;-61
2022/03/20 01:30:27;;;;;;;3.55;1.70;;;19.70;43.90;;;;;;4859656;29;20502;-61
2022/03/20 01:32:53;;;;;;;3.97;1.40;;;19.70;43.90;;;;;;4860515;29;20128;-61
2022/03/20 01:35:19;;;;;;;2.47;1.52;;;19.80;43.90;;;;;;4859865;29;20072;-61
2022/03/20 01:37:44;;;;;;;4.45;1.50;;;19.70;43.90;;;;;;4859795;29;20129;-61
2022/03/20 01:40:10;;;;;;;3.47;1.20;;;19.70;43.90;;;;;;4877248;29;20386;-61
2022/03/20 01:42:38;;;;;;;3.22;1.58;;;19.70;43.90;;;;;;4878953;29;20532;-62
2022/03/20 01:45:14;;;;;;;3.00;1.48;;;19.70;43.90;;;;;;4877175;29;20052;-61
2022/03/20 01:47:39;;;;;;;4.88;1.75;;;19.70;43.90;;;;;;4878907;29;20068;-61
2022/03/20 01:50:05;;;;;;;2.58;1.40;;;19.80;43.80;;;;;;4877172;29;20773;-62
2022/03/20 01:52:32;;;;;;;2.78;1.45;;;19.80;43.80;;;;;;4878133;29;20141;-62
2022/03/20 01:54:58;;;;;;;3.28;1.30;;;19.70;43.80;;;;;;4877551;29;20061;-62
2022/03/20 01:57:23;;;;;;;2.92;1.20;;;19.80;43.90;;;;;;4878305;29;20052;-61
2022/03/20 01:59:49;;;;;;;3.10;1.20;;;19.80;43.80;;;;;;4878098;29;20058;-61
2022/03/20 02:02:15;;;;;;;3.30;1.52;;;19.70;43.80;;;;;;4878299;29;20397;-62
2022/03/20 02:04:41;;;;;;;3.10;1.48;;;19.80;43.90;;;;;;4878586;29;20485;-61
2022/03/20 02:07:06;;;;;;;2.67;1.33;;;19.70;43.80;;;;;;4876983;29;20041;-61
2022/03/20 02:09:34;;;;;;;4.13;1.67;;;19.80;43.80;;;;;;4877207;29;20524;-61
2022/03/20 02:11:59;;;;;;;4.20;1.70;;;19.80;43.80;;;;;;4878546;29;20061;-61
2022/03/20 02:14:25;;;;;;;3.03;1.40;;;19.80;43.80;;;;;;4876671;29;20071;-61
2022/03/20 02:16:51;;;;;;;3.17;1.48;;;19.80;43.80;;;;;;4877360;29;20037;-61
2022/03/20 02:19:16;;;;;;;3.10;1.73;;;19.80;43.90;;;;;;4876610;29;20592;-61
2022/03/20 02:21:43;;;;;;;3.63;1.40;;;19.80;43.80;;;;;;4878412;29;20055;-61
2022/03/20 02:24:27;;;;;;;4.50;1.30;;;19.80;43.90;;;;;;4878642;29;20481;-61
2022/03/20 02:27:12;;;;;;;2.45;1.38;;;19.80;43.90;;;;;;4877567;29;20397;-61
2022/03/20 02:29:39;;;;;;;3.58;1.63;;;19.80;43.80;;;;;;4880366;29;20053;-61
2022/03/20 02:32:06;;;;;;;4.38;1.75;;;19.90;43.90;;;;;;4881576;29;20496;-61
2022/03/20 02:34:32;;;;;;;3.22;1.55;;;19.80;43.90;;;;;;4881211;29;20045;-62
2022/03/20 02:36:58;;;;;;;3.50;1.40;;;19.90;43.90;;;;;;4881700;29;20108;-61
2022/03/20 02:39:23;;;;;;;4.13;1.75;;;19.80;43.80;;;;;;4881453;29;20052;-61
2022/03/20 02:41:50;;;;;;;3.78;1.67;;;19.90;43.90;;;;;;4880988;29;20040;-61
2022/03/20 02:44:16;;;;;;;3.15;1.40;;;19.90;43.80;;;;;;4881472;29;20056;-61
2022/03/20 02:46:42;;;;;;;3.22;1.75;;;19.90;43.80;;;;;;4881682;29;20045;-61
2022/03/20 02:49:08;;;;;;;3.35;1.60;;;19.90;43.80;;;;;;4881273;29;20045;-61
2022/03/20 02:51:35;;;;;;;4.13;1.70;;;19.90;43.80;;;;;;4881440;29;20056;-61
2022/03/20 02:54:02;;;;;;;3.60;1.50;;;19.90;43.90;;;;;;4879827;29;20068;-61
2022/03/20 02:56:28;;;;;;;3.17;1.45;;;19.90;43.90;;;;;;4880252;29;20417;-61
2022/03/20 02:58:54;;;;;;;5.15;1.48;;;19.90;43.80;;;;;;4881401;29;20053;-61
2022/03/20 03:01:19;;;;;;;3.25;1.50;;;20.00;43.80;;;;;;4870783;29;20053;-61
2022/03/20 03:03:45;;;;;;;3.20;1.40;;;19.90;43.80;;;;;;4861943;29;20053;-62
2022/03/20 03:06:14;;;;;;;6.03;1.75;;;20.00;43.80;;;;;;4862317;29;20511;-61
2022/03/20 03:11:24;;;;;;;3.08;1.40;;;19.90;43.70;;;;;;4862331;29;20050;-61
2022/03/20 03:13:49;;;;;;;2.88;1.58;;;20.00;43.80;;;;;;4862747;29;20058;-61
2022/03/20 03:16:15;;;;;;;3.47;1.42;;;20.00;43.70;;;;;;4861812;29;20051;-61
2022/03/20 03:18:43;;;;;;;3.83;1.80;;;20.00;43.70;;;;;;4862445;29;20063;-62
2022/03/20 03:21:09;;;;;;;2.83;1.42;;;20.00;43.70;;;;;;4862728;29;20120;-61
2022/03/20 03:23:36;;;;;;;4.03;1.52;;;20.00;43.70;;;;;;4861496;29;20053;-61
2022/03/20 03:26:02;;;;;;;5.13;2.05;;;20.00;43.70;;;;;;4860992;29;20413;-61
2022/03/20 03:28:34;;;;;;;3.40;1.70;;;20.00;43.60;;;;;;4861817;29;20477;-61
2022/03/20 03:31:03;;;;;;;3.58;1.48;;;20.00;43.70;;;;;;4861993;29;20534;-61
2022/03/20 03:33:29;;;;;;;3.55;1.60;;;20.00;44.30;;;;;;4862090;29;20046;-61
2022/03/20 03:35:56;;;;;;;3.67;1.70;;;20.00;43.60;;;;;;4862145;29;20362;-61
2022/03/20 03:38:23;;;;;;;4.57;2.22;;;20.00;43.60;;;;;;4859828;29;20405;-62
2022/03/20 03:40:49;;;;;;;4.47;1.80;;;20.10;43.70;;;;;;4862064;29;20045;-61
2022/03/20 03:43:17;;;;;;;2.97;1.70;;;20.00;43.60;;;;;;4861659;29;20072;-61
2022/03/20 03:45:43;;;;;;;;;;;20.00;43.60;;;;;;4860891;29;20056;-61
2022/03/20 03:48:09;;;;;;;3.28;1.77;;;20.00;43.70;;;;;;4862176;29;19928;-61
2022/03/20 03:50:36;;;;;;;4.97;1.85;;;20.00;43.60;;;;;;4860076;29;20054;-62
2022/03/20 03:53:03;;;;;;;3.58;1.80;;;20.10;43.70;;;;;;4861015;29;20053;-61
2022/03/20 03:55:29;;;;;;;3.75;1.60;;;20.10;43.60;;;;;;4861782;29;20077;-61
2022/03/20 03:57:55;;;;;;;4.72;1.80;;;20.10;43.60;;;;;;4860945;29;20103;-61
2022/03/20 04:00:21;;;;;;;3.00;1.85;;;20.10;43.60;;;;;;4861546;29;20046;-61
2022/03/20 04:02:47;;;;;;;2.85;1.42;;;20.10;44.20;;;;;;4861892;29;20151;-61
2022/03/20 04:05:15;;;;;;;3.63;1.63;;;20.10;43.60;;;;;;4860504;29;20092;-61
2022/03/20 04:07:41;;;;;;;4.35;1.98;;;20.10;43.50;;;;;;4860394;29;20054;-61
2022/03/20 04:10:07;;;;;;;4.00;1.80;;;20.10;43.50;;;;;;4860352;29;20061;-61
2022/03/20 04:12:36;;;;;;;3.45;1.98;;;20.10;43.50;;;;;;4860402;29;20414;-61
2022/03/20 04:15:02;;;;;;;4.40;2.10;;;20.10;43.50;;;;;;4860420;29;20100;-61
2022/03/20 04:17:29;;;;;;;4.05;1.80;;;20.20;43.50;;;;;;4861112;29;20049;-61
2022/03/20 04:19:56;;;;;;;5.20;2.17;;;20.10;43.40;;;;;;4860852;29;20046;-61
2022/03/20 04:22:21;;;;;;;3.65;2.08;;;20.20;43.40;;;;;;4861227;29;20057;-61
2022/03/20 04:24:47;;;;;;;3.92;2.13;;;20.20;43.40;;;;;;4859788;29;20410;-62
2022/03/20 04:27:13;;;;;;;4.45;2.25;;;20.10;43.40;;;;;;4859373;29;20046;-62
2022/03/20 04:29:39;;;;;;;3.40;1.60;;;20.10;43.40;;;;;;4860202;29;20064;-61
2022/03/20 04:32:05;;;;;;;4.07;1.95;;;20.20;43.40;;;;;;4861204;29;20358;-61
2022/03/20 04:34:31;;;;;;;3.72;2.10;;;20.20;43.40;;;;;;4860363;29;20117;-61
2022/03/20 04:36:57;;;;;;;4.88;2.17;;;20.20;43.40;;;;;;4861233;29;20423;-61
2022/03/20 04:39:23;;;;;;;3.55;1.90;;;20.20;43.40;;;;;;4860745;29;20046;-61
2022/03/20 04:41:49;;;;;;;3.97;2.22;;;20.20;43.40;;;;;;4860539;29;20094;-61
2022/03/20 04:44:15;;;;;;;5.38;1.85;;;20.20;43.40;;;;;;4860939;29;20045;-61
2022/03/20 04:46:40;;;;;;;4.53;2.25;;;20.20;43.40;;;;;;4860835;29;20398;-61
2022/03/20 05:00:05;;;;;;;4.55;2.33;;;20.20;43.20;;;;;;4860840;29;20053;-61
2022/03/20 05:02:30;;;;;;;4.22;2.40;;;20.20;43.20;;;;;;4870426;29;20827;-61
2022/03/20 05:04:56;;;;;;;4.70;2.40;;;20.30;43.30;;;;;;4879123;29;20041;-62
2022/03/20 05:07:21;;;;;;;4.72;2.40;;;20.20;43.10;;;;;;4878280;29;20049;-62
2022/03/20 05:15:15;;;;;;;4.70;2.00;;;20.30;43.20;;;;;;4878184;29;20049;-62
2022/03/20 05:17:41;;;;;;;5.13;2.28;;;20.20;43.10;;;;;;4878904;29;20049;-61
2022/03/20 05:20:07;;;;;;;4.57;2.35;;;20.30;43.10;;;;;;4879088;29;20500;-62
2022/03/20 05:22:37;;;;;;;5.22;2.90;;;20.30;43.10;;;;;;4878164;29;20048;-62
2022/03/20 05:25:03;;;;;;;4.03;2.50;;;20.30;43.00;;;;;;4877798;29;20059;-61
2022/03/20 05:27:29;;;;;;;5.63;2.30;;;20.30;43.00;;;;;;4846582;29;20501;-62
2022/03/20 05:29:54;;;;;;;3.83;2.53;;;20.30;43.00;;;;;;4878583;29;20052;-62
2022/03/20 05:32:20;;;;;;;4.20;2.55;;;20.30;43.00;;;;;;4878605;29;20049;-61
2022/03/20 05:34:46;;;;;;;6.18;2.85;;;20.30;43.00;;;;;;4878766;29;20113;-62
2022/03/20 05:37:11;;;;;;;5.43;2.80;;;20.30;43.00;;;;;;4877117;29;20442;-61
2022/03/20 05:39:38;;;;;;;5.03;2.70;;;20.30;42.90;;;;;;4877729;29;20055;-61
2022/03/20 05:42:04;;;;;;;5.00;2.60;;;20.30;43.00;;;;;;4878589;29;20045;-61
2022/03/20 05:44:30;;;;;;;6.20;2.85;;;20.30;43.00;;;;;;4878122;29;20052;-61
2022/03/20 05:46:56;;;;;;;4.43;2.83;;;20.30;42.90;;;;;;4877627;29;20071;-61
2022/03/20 05:49:23;;;;;;;4.95;2.60;;;20.30;42.90;;;;;;4878321;29;20128;-61
2022/03/20 05:51:49;;;;;;;4.78;2.97;;;20.30;43.00;;;;;;4877178;29;20048;-61
2022/03/20 05:54:15;;;;;;;5.10;3.22;;;20.30;42.90;;;;;;4878426;29;20394;-62
2022/03/20 05:59:25;;;;;;;4.57;2.90;;;20.30;42.90;;;;;;4878193;29;20053;-62
2022/03/20 06:01:51;;;;;;;4.95;2.85;;;20.30;42.90;;;;;;4877379;29;20561;-61
2022/03/20 06:04:17;;;;;;;4.82;3.30;;;20.30;42.90;;;;;;4881578;29;20105;-61
2022/03/20 06:06:43;;;;;;;6.47;3.28;;;20.30;42.90;;;;;;4881877;29;20080;-61
2022/03/20 06:09:08;;;;;;;4.72;3.08;;;20.40;42.90;;;;;;4882543;29;20080;-62
2022/03/20 06:11:34;;;;;;;4.78;2.70;;;20.30;42.80;;;;;;4881058;29;20037;-61
2022/03/20 06:14:09;;;;;;;4.80;3.10;;;20.40;42.90;;;;;;4881093;29;20059;-61
2022/03/20 06:16:35;;;;;;;5.72;3.30;;;20.40;42.80;;;;;;4880808;29;20063;-62
2022/03/20 06:19:00;;;;;;;4.30;3.08;;;20.30;42.70;;;;;;4881778;29;20057;-62
2022/03/20 06:21:26;;;;;;;5.50;3.05;;;20.40;42.80;;;;;;4881834;29;20480;-61
2022/03/20 06:23:53;;;;;;;5.50;3.17;;;20.40;42.80;;;;;;4880816;29;20053;-61
2022/03/20 06:26:19;;;;;;;5.67;3.40;;;20.40;42.70;;;;;;4879871;29;20049;-61
2022/03/20 06:28:44;;;;;;;5.35;3.42;;;20.40;42.70;;;;;;4882053;29;20117;-61
2022/03/20 06:31:13;;;;;;;4.95;3.20;;;20.40;42.70;;;;;;4881796;29;20139;-61
2022/03/20 06:33:39;;;;;;;5.63;3.10;;;20.40;42.70;;;;;;4881451;29;20049;-61
2022/03/20 06:36:05;;;;;;;6.93;3.90;;;20.40;42.70;;;;;;4881948;29;20053;-61
2022/03/20 06:38:31;;;;;;;6.60;3.25;;;20.40;42.70;;;;;;4880099;29;20053;-61
2022/03/20 06:40:57;;;;;;;5.30;3.25;;;20.40;42.60;;;;;;4880138;29;20482;-61
2022/03/20 06:43:23;;;;;;;6.43;3.58;;;20.40;42.60;;;;;;4880133;29;20049;-61
2022/03/20 06:45:50;;;;;;;5.95;3.40;;;20.40;42.60;;;;;;4881261;29;20045;-61
2022/03/20 06:48:15;;;;;;;5.55;3.50;;;20.40;42.60;;;;;;4879780;29;20085;-61
2022/03/20 06:50:41;;;;;;;5.82;3.38;;;20.40;42.60;;;;;;4881392;29;20132;-61
2022/03/20 06:53:07;;;;;;;6.53;3.47;;;20.40;42.60;;;;;;4881351;29;20520;-61
2022/03/20 06:55:32;;;;;;;6.95;3.63;;;20.40;42.60;;;;;;4880494;29;20060;-61
2022/03/20 06:57:58;;;;;;;7.13;3.95;;;20.40;42.50;;;;;;4880014;29;20048;-61
2022/03/20 07:00:26;;;;;;;7.47;3.85;;;20.40;42.50;;;;;;4880812;29;20049;-61
2022/03/20 07:02:53;;;;;;;6.57;3.92;;;20.40;42.40;;;;;;4880864;29;20060;-61
2022/03/20 07:05:19;;;;;;;6.00;3.97;;;20.50;42.40;;;;;;4881183;29;20052;-61
2022/03/20 07:07:44;;;;;;;5.85;3.60;;;20.50;42.40;;;;;;4880797;29;20048;-61
2022/03/20 07:10:11;;;;;;;6.15;3.78;;;20.50;42.30;;;;;;4881289;29;20049;-61
2022/03/20 07:12:37;;;;;;;5.28;3.78;;;20.50;42.30;;;;;;4880104;29;20476;-61
2022/03/20 07:15:02;;;;;;;6.35;3.83;;;20.50;42.30;;;;;;4879670;29;20053;-61
2022/03/20 07:17:28;;;;;;;6.45;3.90;;;20.50;42.20;;;;;;4879757;29;20045;-63
2022/03/20 07:19:53;;;;;;;8.55;3.80;;;20.50;42.20;;;;;;4880947;29;20052;-60
2022/03/20 07:22:19;;;;;;;8.80;4.97;;;20.50;42.30;;;;;;4880199;29;20037;-60
2022/03/20 07:24:45;;;;;;;7.57;4.78;;;20.50;42.10;;;;;;4879974;29;20045;-60
2022/03/20 07:29:55;;;;;;;10.52;5.38;;;20.60;42.60;;;;;;4880319;29;20049;-59
2022/03/20 07:32:20;;;;;;;10.43;5.38;;;20.60;42.00;;;;;;4879250;29;20053;-60
2022/03/20 07:34:46;;;;;;;10.65;5.82;;;20.60;42.00;;;;;;4880325;29;20036;-60
2022/03/20 07:37:16;;;;;;;10.45;5.22;;;20.60;42.00;;;;;;4878767;29;20041;-60
2022/03/20 07:39:46;;;;;;;8.52;5.40;;;20.60;42.00;;;;;;4880639;29;20548;-60
2022/03/20 07:42:12;;;;;;;11.30;5.88;;;20.70;42.00;;;;;;4880282;29;20045;-60
2022/03/20 07:44:37;;;;;;;10.20;5.70;;;20.70;42.00;;;;;;4880049;29;20092;-60
2022/03/20 07:47:08;;;;;;;9.73;5.68;;;20.70;42.00;;;;;;4879222;29;20076;-60
2022/03/20 07:49:37;;;;;;;10.10;5.57;;;20.70;42.00;;;;;;4879545;29;20112;-60
2022/03/20 07:52:06;;;;;;;12.43;5.93;;;20.70;42.00;;;;;;4879363;29;20064;-60
2022/03/20 07:54:32;;;;;;;8.68;5.65;;;20.70;42.20;;;;;;4879769;29;20129;-60
2022/03/20 07:56:58;;;;;;;11.63;5.32;;;20.80;42.30;;;;;;4879610;29;20044;-59
2022/03/20 07:59:23;;;;;;;9.52;5.38;;;20.80;42.40;;;;;;4878975;29;20056;-59
2022/03/20 08:01:49;;;;;;;11.38;5.78;;;20.80;42.40;;;;;;4880202;29;20049;-60
2022/03/20 08:04:16;;;;;;;11.18;6.05;;;20.80;42.50;;;;;;4879241;29;20053;-60
2022/03/20 08:06:42;;;;;;;9.48;5.75;;;20.80;42.40;;;;;;4880038;29;20493;-59
2022/03/20 08:09:07;;;;;;;9.40;5.47;;;20.90;42.50;;;;;;4879924;29;20045;-60
2022/03/20 08:11:33;;;;;;;9.52;5.38;;;20.90;42.50;;;;;;4879313;29;20052;-59
2022/03/20 08:13:59;;;;;;;8.90;6.30;;;20.90;42.40;;;;;;4879904;29;20521;-59
2022/03/20 08:16:26;;;;;;;10.85;6.40;;;20.90;42.40;;;;;;4879588;29;20053;-60
2022/03/20 08:18:56;;;;;;;9.65;6.15;;;20.90;42.30;;;;;;4879052;29;20497;-59
2022/03/20 08:21:21;;;;;;;8.82;5.72;;;20.90;42.30;;;;;;4878477;29;20057;-60
2022/03/20 08:23:47;;;;;;;9.25;5.88;;;20.90;42.20;;;;;;4879661;29;20404;-60
2022/03/20 08:26:12;;;;;;;9.50;6.05;;;21.00;42.20;;;;;;4877319;29;20148;-58
2022/03/20 08:28:39;;;;;;;9.85;6.30;;;21.00;42.20;;;;;;4879593;29;20045;-60
2022/03/20 08:31:08;;;;;;;11.13;6.22;;;21.00;42.10;;;;;;4877725;29;20037;-60
2022/03/20 08:33:34;;;;;;;11.15;5.22;;;21.00;42.10;;;;;;4876743;29;20550;-59
2022/03/20 08:36:00;;;;;;;12.20;6.05;;;21.00;42.10;;;;;;4879680;29;20136;-59
2022/03/20 08:38:25;;;;;;;9.43;6.07;;;21.00;42.00;;;;;;4879079;29;20055;-59
2022/03/20 08:40:51;;;;;;;9.13;5.93;;;21.10;42.10;;;;;;4878709;29;20124;-59
2022/03/20 08:43:16;;;;;;;11.25;6.43;;;21.10;42.10;;;;;;4879258;29;20059;-60
2022/03/20 08:45:43;;;;;;;12.00;6.35;;;21.10;42.00;;;;;;4876942;29;20041;-60
2022/03/20 08:48:09;;;;;;;10.02;6.38;;;21.10;42.00;;;;;;4878895;29;20073;-64
2022/03/20 08:50:34;;;;;;;10.18;5.70;;;21.10;42.00;;;;;;4879049;29;20096;-60
2022/03/20 08:53:00;;;;;;;9.50;5.95;;;21.10;42.00;;;;;;4879150;29;20057;-60
2022/03/20 08:55:25;;;;;;;11.35;6.15;;;21.10;42.00;;;;;;4878300;29;20076;-61
2022/03/20 08:57:52;;;;;;;11.25;6.20;;;21.20;42.00;;;;;;4877828;29;20041;-60
2022/03/20 09:00:20;;;;;;;11.77;6.72;;;21.20;41.90;;;;;;4877205;29;20488;-60
2022/03/20 09:02:46;;;;;;;9.10;5.85;;;21.20;41.80;;;;;;4879193;29;20080;-60
2022/03/20 09:05:12;;;;;;;9.63;6.32;;;21.20;41.80;;;;;;4878633;29;20048;-61
2022/03/20 09:07:44;;;;;;;7.90;5.97;;;21.20;41.70;;;;;;4878735;29;20465;-61
2022/03/20 09:10:10;;;;;;;15.30;6.22;;;21.20;41.60;;;;;;4879353;29;20088;-60
2022/03/20 09:12:37;;;;;;;9.80;5.60;;;21.20;41.50;;;;;;4877590;29;20041;-60
2022/03/20 09:15:06;;;;;;;9.23;6.28;;;21.20;41.50;;;;;;4878709;29;20045;-61
2022/03/20 09:20:17;;;;;;;12.07;6.78;;;21.20;41.40;;;;;;4877129;29;20053;-60
2022/03/20 09:22:42;;;;;;;11.68;6.85;;;21.20;41.40;;;;;;4877108;29;20132;-60
2022/03/20 09:25:08;;;;;;;9.85;6.20;;;21.20;41.30;;;;;;4877948;29;20112;-60
2022/03/20 09:27:35;;;;;;;10.25;6.80;;;21.20;41.20;;;;;;4878338;29;20045;-60
2022/03/20 09:30:01;;;;;;;11.52;6.50;;;21.20;41.20;;;;;;4877529;29;20061;-61
2022/03/20 09:32:27;;;;;;;8.23;5.80;;;21.20;41.20;;;;;;4878319;29;20056;-60
2022/03/20 09:34:52;;;;;;;11.45;7.15;;;21.20;41.20;;;;;;4878776;29;20068;-60
2022/03/20 09:37:18;;;;;;;10.07;6.47;;;21.20;41.20;;;;;;4878439;29;20128;-60
2022/03/20 09:39:43;;;;;;;11.38;6.45;;;21.20;41.20;;;;;;4881719;29;20469;-61
2022/03/20 09:42:09;;;;;;;9.23;6.55;;;21.20;41.20;;;;;;4882401;29;20045;-61
2022/03/20 09:44:38;;;;;;;11.65;7.03;;;21.20;41.10;;;;;;4882056;29;20045;-60
2022/03/20 09:47:08;;;;;;;12.27;6.88;;;21.20;41.10;;;;;;4881590;29;20052;-62
2022/03/20 09:49:33;;;;;;;12.15;6.93;;;21.20;41.30;;;;;;4881595;29;20113;-60
2022/03/20 09:51:59;;;;;;;12.82;6.85;;;21.20;41.30;;;;;;4881092;29;20053;-60
2022/03/20 09:54:24;;;;;;;13.13;6.88;;;21.20;41.30;;;;;;4880399;29;20116;-60
2022/03/20 09:56:51;;;;;;;11.90;7.30;;;21.20;41.20;;;;;;4880879;29;20101;-60
2022/03/20 09:59:17;;;;;;;14.45;7.40;;;21.20;41.20;;;;;;4880768;29;20052;-60
2022/03/20 10:01:42;;;;;;;11.23;7.40;;;21.20;41.20;;;;;;4882149;29;20045;-60
2022/03/20 10:04:09;;;;;;;13.48;7.30;;;21.20;41.30;;;;;;4880711;29;20060;-59
2022/03/20 10:06:36;;;;;;;12.32;6.70;;;21.20;41.40;;;;;;4881397;29;20048;-59
2022/03/20 10:09:09;;;;;;;11.27;7.18;;;21.20;41.60;;;;;;4881365;29;20101;-59
2022/03/20 10:11:35;;;;;;;10.50;7.18;;;21.20;41.70;;;;;;4879869;29;20048;-59
2022/03/20 10:14:05;;;;;;;10.68;6.57;;;21.20;41.80;;;;;;4881043;29;20144;-60
2022/03/20 10:16:31;;;;;;;11.13;6.60;;;21.20;41.90;;;;;;4881526;29;20061;-60
2022/03/20 10:18:56;;;;;;;9.68;6.68;;;21.20;42.00;;;;;;4881367;29;20049;-59
2022/03/20 10:21:43;;;;;;;10.07;6.68;;;21.20;42.20;;;;;;4880555;29;20045;-60
2022/03/20 10:24:18;;;;;;;13.52;6.93;;;21.20;42.00;;;;;;4880659;29;20048;-60
2022/03/20 10:26:44;;;;;;;10.18;6.55;;;21.20;42.10;;;;;;4881164;29;20102;-59
2022/03/20 10:29:15;;;;;;;13.38;7.45;;;21.20;42.00;;;;;;4881395;29;20041;-59
2022/03/20 10:31:48;;;;;;;10.95;7.40;;;21.20;42.10;;;;;;4881003;29;20057;-60
2022/03/20 10:34:14;;;;;;;9.60;6.72;;;21.20;42.20;;;;;;4879284;29;20069;-59
2022/03/20 10:36:42;;;;;;;11.07;7.68;;;21.20;42.20;;;;;;4879986;29;20076;-59
2022/03/20 10:39:11;;;;;;;10.13;7.10;;;21.20;42.20;;;;;;4880861;29;20184;-59
2022/03/20 10:41:38;;;;;;;10.55;7.03;;;21.20;42.30;;;;;;4881345;29;20060;-59
2022/03/20 10:44:15;;;;;;;10.85;6.72;;;21.20;42.30;;;;;;4879633;29;20057;-59
2022/03/20 10:46:41;;;;;;;11.33;6.80;;;21.20;42.40;;;;;;4879610;29;20049;-59
2022/03/20 10:49:07;;;;;;;10.82;7.32;;;21.20;42.40;;;;;;4880223;29;20045;-60
2022/03/20 10:51:39;;;;;;;10.25;7.15;;;21.30;42.40;;;;;;4880563;29;20049;-60
2022/03/20 10:54:05;;;;;;;12.82;7.35;;;21.20;42.30;;;;;;4879214;29;20152;-60
2022/03/20 10:56:31;;;;;;;11.10;7.15;;;21.20;42.30;;;;;;4878494;29;20057;-60
2022/03/20 10:58:57;;;;;;;11.88;6.75;;;21.20;43.00;;;;;;4880792;29;20040;-60
2022/03/20 11:01:34;;;;;;;11.18;7.88;;;21.20;42.40;;;;;;4878801;29;20049;-60
2022/03/20 11:03:59;;;;;;;12.38;6.93;;;21.20;42.40;;;;;;4879350;29;20045;-60
2022/03/20 11:06:25;;;;;;;10.10;7.45;;;21.30;42.40;;;;;;4879490;29;20400;-61
2022/03/20 11:08:50;;;;;;;10.57;7.38;;;21.20;42.30;;;;;;4880676;29;20067;-61
2022/03/20 11:11:17;;;;;;;10.95;7.72;;;21.20;42.00;;;;;;4861566;29;20051;-60
2022/03/20 11:13:46;;;;;;;10.88;7.88;;;21.20;41.90;;;;;;4878543;29;20045;-61
2022/03/20 11:16:12;;;;;;;11.25;7.68;;;21.20;41.90;;;;;;4873085;29;20485;-61
2022/03/20 11:18:38;;;;;;;11.68;7.78;;;21.30;42.00;;;;;;4861875;29;20049;-61
2022/03/20 11:21:04;;;;;;;10.55;7.30;;;21.20;41.90;;;;;;4876764;29;20102;-60
2022/03/20 11:23:30;;;;;;;11.43;7.85;;;21.20;42.00;;;;;;4877422;29;20065;-60
2022/03/20 11:25:55;;;;;;;11.93;8.25;;;21.20;41.90;;;;;;4876794;29;20067;-60
2022/03/20 11:28:21;;;;;;;10.45;7.85;;;21.20;42.00;;;;;;4877152;29;20080;-59
2022/03/20 11:30:47;;;;;;;12.60;8.23;;;21.30;42.00;;;;;;4877908;29;20053;-59
2022/03/20 11:33:12;;;;;;;12.02;8.20;;;21.20;41.90;;;;;;4861205;29;20131;-60
2022/03/20 11:35:38;;;;;;;11.38;8.25;;;21.20;41.90;;;;;;4861765;29;20045;-60
2022/03/20 11:38:17;;;;;;;11.88;7.85;;;21.20;41.90;;;;;;4877639;29;20053;-60
2022/03/20 11:41:06;;;;;;;11.90;8.60;;;21.30;41.90;;;;;;4872306;29;20053;-60
2022/03/20 11:43:31;;;;;;;11.90;7.85;;;21.30;41.90;;;;;;4877592;29;20425;-60
2022/03/20 11:46:32;;;;;;;12.85;8.43;;;21.30;41.90;;;;;;4876674;29;20053;-60
2022/03/20 11:49:13;;;;;;;10.60;7.70;;;21.30;41.90;;;;;;4875152;29;20460;-60
2022/03/20 11:52:07;;;;;;;11.88;8.23;;;21.30;41.90;;;;;;4875789;29;20045;-60
2022/03/20 11:54:41;;;;;;;13.15;8.13;;;21.30;41.90;;;;;;4876552;29;20065;-59
2022/03/20 11:57:26;;;;;;;11.68;8.20;;;21.30;41.80;;;;;;4877681;29;20136;-60
2022/03/20 11:59:54;;;;;;;12.90;8.18;;;21.30;41.70;;;;;;4874443;29;20057;-60
2022/03/20 12:02:20;;;;;;;13.10;8.80;;;21.30;41.70;;;;;;4860559;29;20048;-60
2022/03/20 12:04:59;;;;;;;11.10;7.82;;;21.30;41.60;;;;;;4860838;29;20053;-60
2022/03/20 12:07:32;;;;;;;10.57;7.40;;;21.40;41.50;;;;;;4860927;29;20053;-60
2022/03/20 12:10:09;;;;;;;12.82;8.52;;;21.30;41.50;;;;;;4845871;29;20501;-60
2022/03/20 12:12:39;;;;;;;11.32;8.05;;;21.30;41.50;;;;;;4859756;29;20121;-60
2022/03/20 12:15:09;;;;;;;13.43;8.82;;;21.30;41.50;;;;;;4867148;29;20517;-60
2022/03/20 12:18:02;;;;;;;12.30;8.40;;;21.30;41.60;;;;;;4878861;29;20052;-60
2022/03/20 12:20:52;;;;;;;11.25;7.65;;;21.30;41.50;;;;;;4879718;29;20077;-60
2022/03/20 12:23:35;;;;;;;11.57;8.40;;;21.30;41.60;;;;;;4879032;29;20049;-61
2022/03/20 12:26:23;;;;;;;11.13;8.75;;;21.30;41.60;;;;;;4879303;29;20053;-61
2022/03/20 12:28:48;;;;;;;13.77;9.00;;;21.30;41.40;;;;;;4878448;29;20053;-60
2022/03/20 12:31:26;;;;;;;12.48;9.27;;;21.30;41.40;;;;;;4875701;29;20393;-60
2022/03/20 12:34:20;;;;;;;11.02;8.40;;;21.30;41.40;;;;;;4877963;29;20474;-60
2022/03/20 12:36:45;;;;;;;12.30;8.07;;;21.30;41.50;;;;;;4876336;29;20500;-59
2022/03/20 12:39:11;;;;;;;14.23;9.27;;;21.30;41.60;;;;;;4877305;29;20056;-61
2022/03/20 12:41:36;;;;;;;12.45;9.07;;;21.30;41.70;;;;;;4876856;29;20041;-61
2022/03/20 12:44:07;;;;;;;14.63;9.00;;;21.30;41.50;;;;;;4877188;29;20041;-60
2022/03/20 12:46:34;;;;;;;12.25;8.73;;;21.30;41.40;;;;;;4875892;29;20048;-60
2022/03/20 12:49:00;;;;;;;12.82;8.90;;;21.30;41.30;;;;;;4878125;29;20041;-60
2022/03/20 12:51:44;;;;;;;13.25;9.25;;;21.30;41.40;;;;;;4843252;29;20117;-60
2022/03/20 12:54:11;;;;;;;13.35;8.73;;;21.30;41.40;;;;;;4872364;29;20059;-60
2022/03/20 12:56:56;;;;;;;12.65;8.70;;;21.20;41.40;;;;;;4875998;29;20053;-61
2022/03/20 12:59:23;;;;;;;12.77;8.63;;;21.30;41.50;;;;;;4874740;29;20056;-61
2022/03/20 13:01:49;;;;;;;12.73;8.95;;;21.30;41.40;;;;;;4876849;29;20041;-61
2022/03/20 13:04:15;;;;;;;16.48;10.63;;;21.30;41.50;;;;;;4875256;29;20101;-61
2022/03/20 13:06:41;;;;;;;17.15;9.52;;;21.30;41.50;;;;;;4875288;29;20446;-61
2022/03/20 13:09:12;;;;;;;15.57;10.18;;;21.30;41.70;;;;;;4891084;29;20489;-61
2022/03/20 13:11:53;;;;;;;17.23;10.60;;;21.30;41.90;;;;;;4875110;29;20413;-61